Terminal Aerodrome Forecast
Issued by NWS

Home | Current Version | Previous Version | Text Only | Print | Product List | Glossary On
Versions: 1 2 3 4 5 6 7 8 9 10 11 12 13 14 15
000
FTUS44 KBMX 051120
TAFTCL
TAF
KTCL 051120Z 0512/0612 02005KT 5SM -DZ BR OVC006
     FM051600 06005KT 4SM RA BR OVC006
     FM060300 12008KT 4SM SHRA BR OVC006=

USA.gov is the U.S. government's official web portal to all federal, state and local government web resources and services.